Time;durP1;ratioP1;P1;durP2;ratioP2;P2;SDS_P1;SDS_P2;PMS_P1;PMS_P2;Temp;Humidity;BMP_temperature;BMP_pressure;BME280_temperature;BME280_humidity;BME280_pressure;Samples;Min_cycle;Max_cycle;Signal;HPM_P1;HPM_P2
2024/02/22 00:00:02;;;;;;;7.07;4.00;;;;;;;7.49;100.00;99289.66;5046727;28;20041;-78
2024/02/22 00:02:39;;;;;;;6.97;4.07;;;;;;;7.55;100.00;99291.13;5048417;28;20045;-79
2024/02/22 00:05:08;;;;;;;8.50;4.03;;;;;;;7.74;100.00;99315.56;5029495;28;20305;-77
2024/02/22 00:07:36;;;;;;;6.63;3.80;;;;;;;7.67;100.00;99296.59;5048649;28;20094;-77
2024/02/22 00:10:08;;;;;;;6.22;3.75;;;;;;;7.14;100.00;99217.75;5014928;28;20044;-78
2024/02/22 00:12:38;;;;;;;5.95;3.90;;;;;;;7.57;100.00;99287.47;4998452;28;20140;-77
2024/02/22 00:15:10;;;;;;;7.53;4.05;;;;;;;7.75;100.00;99297.03;5049617;28;20041;-77
2024/02/22 00:17:40;;;;;;;7.25;3.83;;;;;;;7.68;100.00;99281.66;5049491;28;21836;-78
2024/02/22 00:20:10;;;;;;;7.50;4.20;;;;;;;7.64;100.00;99269.56;5033756;28;20044;-78
2024/02/22 00:22:39;;;;;;;7.43;4.45;;;;;;;7.79;100.00;99287.19;5034340;28;20049;-78
2024/02/22 00:25:09;;;;;;;7.18;3.85;;;;;;;7.70;100.00;99259.56;5052144;28;20067;-81
2024/02/22 00:27:38;;;;;;;7.78;4.22;;;;;;;7.80;100.00;99281.00;5015453;28;20044;-79
2024/02/22 00:30:09;;;;;;;7.00;4.00;;;;;;;7.82;100.00;99275.63;5045736;28;20041;-78
2024/02/22 00:32:36;;;;;;;;;;;;;;;7.84;100.00;99271.13;5029994;28;20049;-77
2024/02/22 00:35:06;;;;;;;5.90;4.03;;;;;;;7.62;100.00;99226.63;5051654;28;19989;-78
2024/02/22 00:37:35;;;;;;;3.97;3.00;;;;;;;7.82;100.00;99255.41;5032438;28;20528;-81
2024/02/22 00:40:09;;;;;;;8.43;4.35;;;;;;;7.85;100.00;99249.97;5043848;28;20048;-77
2024/02/22 00:42:38;;;;;;;6.75;4.13;;;;;;;7.86;100.00;99246.41;5040665;28;20049;-77
2024/02/22 00:45:08;;;;;;;5.00;3.97;;;;;;;7.69;100.00;99209.56;5030292;28;20051;-76
2024/02/22 00:47:37;;;;;;;;;;;;;;;7.88;100.00;99241.03;5027826;28;20132;-78
2024/02/22 00:50:06;;;;;;;5.90;3.58;;;;;;;7.87;100.00;99229.63;5021452;28;19940;-78
2024/02/22 00:52:35;;;;;;;5.70;3.20;;;;;;;7.31;100.00;99135.22;5006979;28;20111;-78
2024/02/22 00:55:03;;;;;;;5.78;3.40;;;;;;;7.25;100.00;99117.97;5009749;28;20051;-78
2024/02/22 00:57:31;;;;;;;5.65;3.70;;;;;;;7.91;100.00;99218.00;5021619;28;20131;-78
2024/02/22 01:00:01;;;;;;;7.85;3.58;;;;;;;7.84;100.00;99198.19;5039169;28;20053;-76
2024/02/22 01:02:29;;;;;;;;;;;;;;;7.92;100.00;99211.78;5042755;28;20052;-77
2024/02/22 01:04:57;;;;;;;5.03;3.42;;;;;;;6.82;100.00;99015.94;5007582;28;20024;-78
2024/02/22 01:07:25;;;;;;;5.88;3.72;;;;;;;7.83;100.00;99180.69;5023695;28;20156;-77
2024/02/22 01:09:53;;;;;;;8.23;3.60;;;;;;;7.51;100.00;99126.25;5038011;28;20042;-79
2024/02/22 01:12:22;;;;;;;6.80;3.65;;;;;;;7.94;100.00;99187.97;5009554;28;20051;-78
2024/02/22 01:14:50;;;;;;;5.75;3.92;;;;;;;7.94;100.00;99180.94;5017485;28;20061;-78
2024/02/22 01:17:19;;;;;;;5.40;3.38;;;;;;;7.97;100.00;99187.81;5007325;28;20046;-78
2024/02/22 01:19:47;;;;;;;4.97;3.42;;;;;;;7.29;100.00;99069.47;5034248;28;20041;-79
2024/02/22 01:22:15;;;;;;;5.90;3.63;;;;;;;7.96;100.00;99176.44;4988548;28;20152;-77
2024/02/22 01:24:43;;;;;;;6.55;3.67;;;;;;;7.96;100.00;99175.56;5021785;28;20073;-78
2024/02/22 01:27:12;;;;;;;6.97;3.95;;;;;;;7.97;100.00;99161.47;5021103;28;20061;-79
2024/02/22 01:29:41;;;;;;;5.70;3.47;;;;;;;7.97;100.00;99157.03;5016386;28;20038;-78
2024/02/22 01:32:09;;;;;;;5.63;4.00;;;;;;;7.96;100.00;99144.78;5017809;28;20034;-78
2024/02/22 01:34:41;;;;;;;4.15;3.42;;;;;;;7.97;100.00;99146.50;5022421;28;20617;-78
2024/02/22 01:37:09;;;;;;;4.68;3.60;;;;;;;7.75;100.00;99094.13;5036037;28;20058;-77
2024/02/22 01:39:37;;;;;;;7.10;3.83;;;;;;;7.95;100.00;99124.63;5020450;28;20114;-77
2024/02/22 01:42:05;;;;;;;6.28;3.67;;;;;;;8.01;100.00;99126.94;5022816;28;20045;-78
2024/02/22 01:44:33;;;;;;;7.88;3.55;;;;;;;8.01;100.00;99126.09;5040701;28;20439;-79
2024/02/22 01:47:01;;;;;;;4.30;3.30;;;;;;;8.03;100.00;99118.91;5012582;28;20060;-79
2024/02/22 01:49:29;;;;;;;4.55;3.50;;;;;;;8.00;100.00;99114.69;5003263;28;20046;-78
2024/02/22 01:52:04;;;;;;;6.05;3.65;;;;;;;8.02;100.00;99106.69;5021534;28;20455;-78
2024/02/22 01:54:32;;;;;;;4.63;3.45;;;;;;;8.02;100.00;99106.69;5021043;28;20100;-77
2024/02/22 01:57:00;;;;;;;5.28;3.55;;;;;;;8.04;100.00;99099.53;5005535;28;20052;-77
2024/02/22 01:59:28;;;;;;;6.82;3.70;;;;;;;7.60;100.00;99021.22;5034113;28;20518;-77
2024/02/22 02:01:58;;;;;;;5.28;3.63;;;;;;;8.03;100.00;99090.78;5020121;28;20509;-77
2024/02/22 02:04:28;;;;;;;5.32;3.35;;;;;;;8.09;100.00;99094.84;5022994;28;20041;-78
2024/02/22 02:06:59;;;;;;;4.70;3.60;;;;;;;8.09;100.00;99087.78;5025057;28;20058;-78
2024/02/22 02:09:28;;;;;;;4.53;3.40;;;;;;;8.09;100.00;99085.16;5023697;28;20041;-78
2024/02/22 02:11:57;;;;;;;5.13;3.45;;;;;;;7.79;100.00;99021.03;5022092;28;20053;-79
2024/02/22 02:14:26;;;;;;;5.38;3.30;;;;;;;7.13;100.00;98900.13;5021892;28;20044;-81
2024/02/22 02:16:54;;;;;;;4.82;3.40;;;;;;;8.08;100.00;99057.09;5038999;28;20060;-79
2024/02/22 02:19:26;;;;;;;6.32;3.60;;;;;;;7.82;100.00;99023.50;5020009;28;20106;-81
2024/02/22 02:22:07;;;;;;;5.22;3.42;;;;;;;8.15;100.00;99064.66;5026295;28;20042;-79
2024/02/22 02:24:42;;;;;;;5.57;4.00;;;;;;;7.71;100.00;98986.38;5025245;28;20049;-79
2024/02/22 02:27:14;;;;;;;5.00;3.90;;;;;;;7.87;100.00;99013.50;5023921;28;20053;-78
2024/02/22 02:29:44;;;;;;;6.78;4.47;;;;;;;8.02;100.00;99025.84;5004239;28;20135;-77
2024/02/22 02:32:12;;;;;;;;;;;;;;;8.17;100.00;99042.53;5026439;28;20095;-78
2024/02/22 02:34:41;;;;;;;6.95;5.40;;;;;;;8.16;100.00;99029.44;5020138;28;19935;-78
2024/02/22 02:37:10;;;;;;;6.80;5.25;;;;;;;8.07;100.00;99007.94;5024639;28;20042;-77
2024/02/22 02:39:39;;;;;;;9.20;5.85;;;;;;;7.93;100.00;98983.31;5019180;28;20393;-78
2024/02/22 02:42:07;;;;;;;8.07;5.93;;;;;;;8.18;100.00;99020.50;5033724;28;20057;-78
2024/02/22 02:44:36;;;;;;;9.45;6.43;;;;;;;8.04;100.00;98994.94;5023143;28;20169;-78
2024/02/22 02:47:08;;;;;;;10.25;6.60;;;;;;;7.90;100.00;98944.81;5025161;28;20049;-77
2024/02/22 02:49:36;;;;;;;9.52;6.30;;;;;;;7.71;100.00;98920.50;5019255;28;20057;-78
2024/02/22 02:52:05;;;;;;;10.30;6.70;;;;;;;7.75;100.00;98906.19;5024034;28;20168;-79
2024/02/22 02:54:33;;;;;;;8.85;6.68;;;;;;;7.67;100.00;98890.00;5037741;28;20111;-79
2024/02/22 02:57:01;;;;;;;8.93;6.80;;;;;;;8.24;100.00;98979.72;5026214;28;20053;-79
2024/02/22 02:59:29;;;;;;;9.85;6.85;;;;;;;8.26;100.00;98978.69;5014527;28;20052;-79
2024/02/22 03:01:59;;;;;;;9.73;6.18;;;;;;;8.27;100.00;98976.91;5021285;28;20044;-78
2024/02/22 03:04:28;;;;;;;8.18;6.47;;;;;;;8.25;100.00;98970.88;5020558;28;20201;-77
2024/02/22 03:06:56;;;;;;;10.50;6.22;;;;;;;8.24;100.00;98963.91;5006694;28;20038;-77
2024/02/22 03:09:26;;;;;;;8.30;6.45;;;;;;;7.86;100.00;98901.16;5018829;28;20116;-77
2024/02/22 03:11:54;;;;;;;7.47;6.20;;;;;;;8.27;100.00;98964.56;5007130;28;20052;-79
2024/02/22 03:14:22;;;;;;;6.97;5.63;;;;;;;8.28;100.00;98965.41;5003683;28;20052;-80
2024/02/22 03:16:52;;;;;;;8.05;6.07;;;;;;;8.27;100.00;98964.56;5037044;28;20072;-79
2024/02/22 03:19:21;;;;;;;7.95;5.88;;;;;;;8.28;100.00;98953.09;5003398;28;20044;-78
2024/02/22 03:21:49;;;;;;;8.10;6.10;;;;;;;8.28;100.00;98958.34;5004723;28;20102;-78
2024/02/22 03:24:17;;;;;;;8.77;6.63;;;;;;;8.07;100.00;98920.94;5022304;28;20096;-80
2024/02/22 03:26:46;;;;;;;8.70;6.30;;;;;;;8.20;100.00;98930.72;5024615;28;20155;-79
2024/02/22 03:29:14;;;;;;;8.43;7.20;;;;;;;8.30;100.00;98939.81;5017135;28;20549;-78
2024/02/22 03:31:43;;;;;;;11.98;7.13;;;;;;;8.23;100.00;98912.09;5036832;28;20551;-78
2024/02/22 03:34:11;;;;;;;8.65;6.78;;;;;;;8.34;100.00;98923.72;5036705;28;20041;-79
2024/02/22 03:36:41;;;;;;;8.73;7.43;;;;;;;7.77;100.00;98833.16;5007519;28;20050;-78
2024/02/22 03:39:12;;;;;;;9.63;7.57;;;;;;;8.31;100.00;98925.69;5037219;28;20058;-78
2024/02/22 03:41:40;;;;;;;8.30;7.25;;;;;;;8.10;100.00;98899.66;5038560;28;20051;-77
2024/02/22 03:44:08;;;;;;;9.60;7.78;;;;;;;8.30;100.00;98923.97;5017615;28;20065;-80
2024/02/22 03:46:37;;;;;;;12.52;8.63;;;;;;;8.31;100.00;98915.97;5037451;28;20494;-80
2024/02/22 03:49:06;;;;;;;11.25;8.63;;;;;;;8.31;100.00;98917.78;5017721;28;20049;-81
2024/02/22 03:51:35;;;;;;;9.93;8.32;;;;;;;8.36;100.00;98911.28;5037570;28;20033;-78
2024/02/22 03:54:04;;;;;;;10.63;8.57;;;;;;;8.25;100.00;98881.22;5041299;28;20072;-79
2024/02/22 03:56:33;;;;;;;10.63;8.32;;;;;;;8.40;100.00;98896.13;5027835;28;20056;-79
2024/02/22 03:59:01;;;;;;;11.82;8.77;;;;;;;8.36;100.00;98905.16;5024314;28;20110;-79
2024/02/22 04:01:32;;;;;;;10.80;9.15;;;;;;;8.34;100.00;98901.78;5025962;28;20060;-79
2024/02/22 04:04:03;;;;;;;10.93;9.35;;;;;;;7.94;100.00;98834.78;5023530;28;20135;-78
2024/02/22 04:06:31;;;;;;;10.80;8.70;;;;;;;8.36;100.00;98905.16;5023146;28;20045;-79
2024/02/22 04:09:05;;;;;;;13.55;9.38;;;;;;;8.14;100.00;98870.47;5039374;28;20616;-82
2024/02/22 04:11:34;;;;;;;12.63;9.25;;;;;;;7.81;100.00;98813.59;5026281;28;20041;-77
2024/02/22 04:14:04;;;;;;;13.38;9.98;;;;;;;8.31;100.00;98894.03;5025972;28;20049;-78
2024/02/22 04:16:33;;;;;;;13.82;10.90;;;;;;;8.37;100.00;98901.56;5043903;28;20049;-78
2024/02/22 04:19:01;;;;;;;12.85;10.18;;;;;;;8.37;100.00;98896.31;5025786;28;20603;-80
2024/02/22 04:21:30;;;;;;;13.65;10.57;;;;;;;8.35;100.00;98891.13;5010843;28;20041;-77
2024/02/22 04:23:58;;;;;;;14.40;10.48;;;;;;;8.35;100.00;98883.22;5014809;28;20049;-78
2024/02/22 04:26:27;;;;;;;13.85;10.85;;;;;;;8.36;100.00;98873.50;5025558;28;20060;-78
2024/02/22 04:28:55;;;;;;;14.90;11.07;;;;;;;8.16;100.00;98827.25;5039256;28;20053;-78
2024/02/22 04:31:22;;;;;;;12.35;10.73;;;;;;;8.30;100.00;98836.94;5043124;28;20131;-80
2024/02/22 04:33:51;;;;;;;16.35;10.98;;;;;;;8.41;100.00;98871.44;5013879;28;20037;-80
2024/02/22 04:36:18;;;;;;;14.05;10.43;;;;;;;8.40;100.00;98862.69;5026006;28;20614;-78
2024/02/22 04:38:48;;;;;;;13.40;10.70;;;;;;;8.42;100.00;98865.22;5050710;28;20071;-79
2024/02/22 04:41:20;;;;;;;13.35;10.35;;;;;;;8.41;100.00;98861.75;5027487;28;20047;-79
2024/02/22 04:43:50;;;;;;;13.45;10.73;;;;;;;8.26;100.00;98835.44;5045160;28;20048;-78
2024/02/22 04:46:19;;;;;;;13.02;10.70;;;;;;;8.37;100.00;98838.28;5030055;28;20065;-79
2024/02/22 04:48:47;;;;;;;13.43;10.40;;;;;;;8.21;100.00;98811.97;5046077;28;20037;-83
2024/02/22 04:51:15;;;;;;;13.27;10.68;;;;;;;8.47;100.00;98842.06;5009488;28;20068;-78
2024/02/22 04:53:43;;;;;;;13.88;9.80;;;;;;;8.22;100.00;98794.38;5029197;28;20489;-79
2024/02/22 04:56:13;;;;;;;12.60;10.32;;;;;;;8.49;100.00;98826.97;5011336;28;20580;-78
2024/02/22 04:58:41;;;;;;;12.75;9.05;;;;;;;8.49;100.00;98831.41;5012552;28;20686;-79
2024/02/22 05:01:11;;;;;;;14.63;10.07;;;;;;;8.29;100.00;98793.06;5008847;28;20134;-78
2024/02/22 05:03:40;;;;;;;15.63;9.52;;;;;;;8.49;100.00;98828.78;5044206;28;20045;-79
2024/02/22 05:06:10;;;;;;;11.90;8.93;;;;;;;8.41;100.00;98818.69;5040845;28;20067;-79
2024/02/22 05:08:38;;;;;;;12.60;9.40;;;;;;;8.51;100.00;98824.22;5028496;28;20100;-79
2024/02/22 05:11:07;;;;;;;12.00;8.85;;;;;;;8.48;100.00;98814.72;5043161;28;20088;-79
2024/02/22 05:13:34;;;;;;;12.45;8.80;;;;;;;8.54;100.00;98824.88;5030949;28;20037;-78
2024/02/22 05:16:04;;;;;;;11.82;8.30;;;;;;;8.10;100.00;98744.13;5014311;28;20120;-78
2024/02/22 05:18:35;;;;;;;13.02;9.32;;;;;;;8.55;100.00;98821.28;5022532;28;20045;-78
2024/02/22 05:21:03;;;;;;;13.15;8.45;;;;;;;8.58;100.00;98802.63;5024537;28;20059;-79
2024/02/22 05:23:31;;;;;;;10.25;7.35;;;;;;;8.31;100.00;98759.53;5030104;28;20132;-77
2024/02/22 05:26:00;;;;;;;10.15;7.85;;;;;;;8.56;100.00;98788.69;5010927;28;20052;-79
2024/02/22 05:28:30;;;;;;;9.82;6.70;;;;;;;8.52;100.00;98773.16;5008793;28;20456;-77
2024/02/22 05:30:59;;;;;;;7.68;6.38;;;;;;;8.55;100.00;98773.81;5042383;28;20044;-78
2024/02/22 05:33:29;;;;;;;9.05;6.40;;;;;;;7.91;100.00;98669.78;5032278;28;20079;-77
2024/02/22 05:35:58;;;;;;;7.55;6.55;;;;;;;8.36;100.00;98742.47;5032129;28;20033;-77
2024/02/22 05:38:26;;;;;;;8.77;6.40;;;;;;;8.59;100.00;98780.59;5029362;28;20501;-78
2024/02/22 05:40:54;;;;;;;8.30;5.72;;;;;;;8.40;100.00;98754.53;5011608;28;20051;-79
2024/02/22 05:43:22;;;;;;;7.80;5.65;;;;;;;8.63;100.00;98779.44;5047807;28;20040;-79
2024/02/22 05:45:53;;;;;;;6.80;5.28;;;;;;;8.48;100.00;98750.56;5027365;28;20040;-78
2024/02/22 05:48:23;;;;;;;6.55;4.78;;;;;;;8.64;100.00;98778.50;5015405;28;20047;-79
2024/02/22 05:50:51;;;;;;;5.97;4.47;;;;;;;8.66;100.00;98773.94;5030358;28;20131;-78
2024/02/22 05:53:22;;;;;;;7.47;5.18;;;;;;;8.66;100.00;98773.94;5049261;28;20037;-78
2024/02/22 05:55:51;;;;;;;6.80;5.20;;;;;;;7.69;100.00;98608.84;5043431;28;20072;-78
2024/02/22 05:58:20;;;;;;;5.70;4.97;;;;;;;8.14;100.00;98680.66;5025116;28;20052;-79
2024/02/22 06:00:49;;;;;;;6.82;5.30;;;;;;;8.15;100.00;98674.44;5044356;28;20052;-79
2024/02/22 06:03:17;;;;;;;6.85;5.05;;;;;;;8.44;100.00;98723.53;5046361;28;20094;-78
2024/02/22 06:05:46;;;;;;;6.38;5.20;;;;;;;8.42;100.00;98720.16;5015996;28;20052;-78
2024/02/22 06:08:13;;;;;;;6.18;5.57;;;;;;;8.61;100.00;98731.22;5041117;28;20049;-80
2024/02/22 06:10:43;;;;;;;7.75;5.47;;;;;;;8.19;100.00;98662.72;5001904;28;20042;-79
2024/02/22 06:13:11;;;;;;;6.80;5.38;;;;;;;7.98;100.00;98621.00;5030276;28;20051;-78
2024/02/22 06:15:39;;;;;;;6.72;5.80;;;;;;;8.32;100.00;98668.97;5048215;28;20049;-78
2024/02/22 06:18:08;;;;;;;7.00;5.80;;;;;;;8.54;100.00;98694.75;5032823;28;20045;-79
2024/02/22 06:20:38;;;;;;;7.60;5.97;;;;;;;8.69;100.00;98709.56;5042865;28;20055;-78
2024/02/22 06:23:06;;;;;;;7.35;6.55;;;;;;;8.78;100.00;98727.47;5047008;28;20102;-78
2024/02/22 06:25:35;;;;;;;10.73;7.57;;;;;;;8.76;100.00;98714.38;5044878;28;20596;-78
2024/02/22 06:28:05;;;;;;;9.60;7.45;;;;;;;8.60;100.00;98697.84;5030556;28;20044;-80
2024/02/22 06:30:34;;;;;;;10.80;8.88;;;;;;;8.80;100.00;98717.66;5044381;28;20100;-78
2024/02/22 06:33:02;;;;;;;12.18;8.57;;;;;;;8.79;100.00;98719.44;5028796;28;20393;-79
2024/02/22 06:35:31;;;;;;;15.80;10.35;;;;;;;8.81;100.00;98721.13;5026950;28;20041;-79
2024/02/22 06:38:00;;;;;;;15.73;9.90;;;;;;;8.80;100.00;98720.28;5014827;28;20049;-78
2024/02/22 06:40:28;;;;;;;15.57;11.73;;;;;;;8.79;100.00;98724.72;5035367;28;20741;-79
2024/02/22 06:42:58;;;;;;;15.18;11.38;;;;;;;8.74;100.00;98713.63;4998386;28;20098;-78
2024/02/22 06:45:28;;;;;;;15.23;11.52;;;;;;;8.86;100.00;98725.16;5029789;28;20033;-78
2024/02/22 06:47:55;;;;;;;17.60;12.15;;;;;;;8.44;100.00;98655.81;5013652;28;20393;-77
2024/02/22 06:50:25;;;;;;;16.97;12.37;;;;;;;8.66;100.00;98691.31;5039267;28;20040;-78
2024/02/22 06:52:53;;;;;;;18.13;12.18;;;;;;;8.86;100.00;98708.47;5040550;28;21313;-78
2024/02/22 06:55:24;;;;;;;17.88;13.07;;;;;;;8.86;100.00;98706.66;5023693;28;20088;-80
2024/02/22 06:57:53;;;;;;;20.13;13.30;;;;;;;8.87;100.00;98703.09;5033310;28;20106;-78
2024/02/22 07:00:22;;;;;;;17.83;13.00;;;;;;;8.86;100.00;98697.91;5031160;28;21490;-79
2024/02/22 07:02:53;;;;;;;18.50;13.20;;;;;;;8.78;100.00;98678.16;5029384;28;20037;-79
2024/02/22 07:05:21;;;;;;;17.95;12.80;;;;;;;8.89;100.00;98681.88;5029318;28;20083;-78
2024/02/22 07:07:50;;;;;;;21.05;13.60;;;;;;;8.91;100.00;98683.47;5032011;28;20549;-79
2024/02/22 07:10:18;;;;;;;16.67;12.63;;;;;;;8.90;100.00;98670.34;5044754;28;20041;-77
2024/02/22 07:12:46;;;;;;;17.95;13.23;;;;;;;8.92;100.00;98668.47;5007010;28;20045;-79
2024/02/22 07:15:16;;;;;;;20.13;12.80;;;;;;;8.88;100.00;98654.63;5018557;28;20094;-79
2024/02/22 07:17:45;;;;;;;18.92;12.75;;;;;;;8.65;100.00;98621.03;5028381;28;20041;-78
2024/02/22 07:20:15;;;;;;;17.30;13.10;;;;;;;8.87;100.00;98663.50;5029912;28;20041;-78
2024/02/22 07:22:46;;;;;;;17.27;12.52;;;;;;;8.88;100.00;98669.63;5039743;28;20049;-79
2024/02/22 07:25:16;;;;;;;15.45;11.82;;;;;;;8.67;100.00;98630.50;5029009;28;20053;-79
2024/02/22 07:27:44;;;;;;;17.15;13.15;;;;;;;8.35;100.00;98571.16;5030816;28;20059;-81
2024/02/22 07:30:13;;;;;;;15.15;11.57;;;;;;;8.84;100.00;98639.94;5030761;28;20091;-78
2024/02/22 07:32:41;;;;;;;14.82;11.55;;;;;;;8.95;100.00;98660.34;5016360;28;20080;-77
2024/02/22 07:35:10;;;;;;;14.48;11.25;;;;;;;8.96;100.00;98664.69;5054458;28;20086;-78
2024/02/22 07:37:41;;;;;;;14.15;11.60;;;;;;;8.88;100.00;98643.22;5036225;28;20147;-79
2024/02/22 07:40:10;;;;;;;14.52;11.23;;;;;;;8.61;100.00;98603.72;5042112;28;20056;-79
2024/02/22 07:42:40;;;;;;;14.02;11.40;;;;;;;8.73;100.00;98624.84;5034046;28;20052;-79
2024/02/22 07:45:10;;;;;;;14.50;11.38;;;;;;;8.94;100.00;98656.00;5056188;28;20056;-78
2024/02/22 07:47:39;;;;;;;14.67;12.23;;;;;;;8.95;100.00;98649.78;5039339;28;20071;-79
2024/02/22 07:50:10;;;;;;;16.65;12.43;;;;;;;8.99;100.00;98648.59;5020085;28;20467;-78
2024/02/22 07:52:41;;;;;;;15.30;11.50;;;;;;;8.89;100.00;98640.47;5034337;28;20044;-79
2024/02/22 07:55:10;;;;;;;16.58;12.02;;;;;;;8.55;100.00;98561.91;5024149;28;20040;-79
2024/02/22 07:57:38;;;;;;;15.15;12.13;;;;;;;8.36;100.00;98525.38;5059134;28;20517;-77
2024/02/22 08:00:09;;;;;;;17.35;11.95;;;;;;;9.04;100.00;98622.75;5055731;28;20049;-80
2024/02/22 08:02:37;;;;;;;15.30;11.77;;;;;;;9.03;100.00;98621.06;5033380;28;20114;-78
2024/02/22 08:05:09;;;;;;;15.63;11.50;;;;;;;8.98;100.00;98608.16;5018012;28;20533;-78
2024/02/22 08:07:38;;;;;;;16.67;11.77;;;;;;;9.04;100.00;98609.53;5017771;28;20041;-79
2024/02/22 08:10:09;;;;;;;14.60;11.60;;;;;;;9.07;100.00;98623.38;5038405;28;20520;-81
2024/02/22 08:12:37;;;;;;;14.63;11.18;;;;;;;9.06;100.00;98615.56;5059870;28;20041;-82
2024/02/22 08:15:08;;;;;;;14.90;11.30;;;;;;;9.06;100.00;98605.00;5045215;28;20049;-82
2024/02/22 08:17:38;;;;;;;15.15;10.00;;;;;;;9.10;100.00;98612.63;5068629;28;20041;-77
2024/02/22 08:20:06;;;;;;;;;;;;;;;9.10;100.00;98603.84;5066361;28;20044;-81
2024/02/22 08:22:36;;;;;;;12.18;9.85;;;;;;;9.09;100.00;98596.88;5039030;28;19928;-78
2024/02/22 08:25:05;;;;;;;20.17;14.80;;;;;;;9.09;100.00;98604.81;5041205;28;20037;-80
2024/02/22 08:27:36;;;;;;;11.60;9.57;;;;;;;9.09;100.00;98599.53;5033316;28;20037;-77
2024/02/22 08:30:22;;;;;;;13.45;9.93;;;;;;;9.09;100.00;98599.53;5033224;28;20121;-79
2024/02/22 08:32:57;;;;;;;13.13;9.35;;;;;;;8.48;100.00;98490.28;5030385;28;20041;-78
2024/02/22 08:35:26;;;;;;;12.70;9.30;;;;;;;9.07;100.00;98601.41;5017032;28;20077;-78
2024/02/22 08:37:54;;;;;;;11.27;9.30;;;;;;;9.09;100.00;98594.25;5049831;28;20065;-79
2024/02/22 08:40:23;;;;;;;12.18;8.88;;;;;;;9.10;100.00;98588.84;5032899;28;20399;-79
2024/02/22 08:43:08;;;;;;;10.57;8.50;;;;;;;8.89;100.00;98534.06;5027084;28;20076;-78
2024/02/22 08:45:35;;;;;;;;;;;;;;;9.23;100.00;98573.00;5038956;28;20115;-78
2024/02/22 08:48:04;;;;;;;11.05;8.95;;;;;;;8.85;100.00;98533.41;5032681;28;19955;-78
2024/02/22 08:50:33;;;;;;;11.18;9.10;;;;;;;9.15;100.00;98567.38;5029739;28;20053;-78
2024/02/22 08:53:04;;;;;;;12.77;9.30;;;;;;;9.14;100.00;98560.41;5030468;28;20098;-80
2024/02/22 08:55:37;;;;;;;9.27;8.02;;;;;;;9.08;100.00;98534.47;5061423;28;20089;-82
2024/02/22 08:58:07;;;;;;;9.00;8.00;;;;;;;9.24;100.00;98550.91;5066535;28;20037;-79
2024/02/22 09:00:36;;;;;;;10.77;8.15;;;;;;;9.26;100.00;98540.25;5030426;28;21591;-78
2024/02/22 09:03:09;;;;;;;9.45;8.35;;;;;;;9.24;100.00;98529.78;5034017;28;20136;-80
2024/02/22 09:05:41;;;;;;;12.98;8.50;;;;;;;9.33;100.00;98529.13;5033603;28;20041;-78
2024/02/22 09:08:13;;;;;;;12.50;8.43;;;;;;;9.35;100.00;98521.94;5015391;28;20115;-78
2024/02/22 09:10:42;;;;;;;9.88;8.68;;;;;;;9.39;100.00;98517.28;5048448;28;20040;-81
2024/02/22 09:13:12;;;;;;;11.63;9.02;;;;;;;9.09;100.00;98462.22;5014045;28;20037;-78
2024/02/22 09:15:40;;;;;;;11.43;8.98;;;;;;;9.43;100.00;98506.38;5051074;28;20049;-80
2024/02/22 09:18:08;;;;;;;9.10;7.85;;;;;;;9.43;100.00;98503.75;5017166;28;20049;-79
2024/02/22 09:20:36;;;;;;;9.05;8.05;;;;;;;9.39;100.00;98501.44;5050458;28;20049;-79
2024/02/22 09:23:05;;;;;;;8.82;7.60;;;;;;;9.44;100.00;98494.84;5031217;28;20106;-79
2024/02/22 09:25:34;;;;;;;10.82;7.72;;;;;;;9.44;100.00;98486.09;5051782;28;20410;-80
2024/02/22 09:28:03;;;;;;;8.02;6.90;;;;;;;9.43;100.00;98487.88;5028628;28;20033;-80
2024/02/22 09:30:39;;;;;;;7.97;6.63;;;;;;;9.09;100.00;98431.38;5030226;28;20049;-79
2024/02/22 09:33:11;;;;;;;8.55;6.72;;;;;;;9.11;100.00;98424.19;5029302;28;20113;-79
2024/02/22 09:35:46;;;;;;;7.13;6.43;;;;;;;9.27;100.00;98438.94;5047953;28;20037;-78
2024/02/22 09:38:13;;;;;;;7.80;6.20;;;;;;;9.52;100.00;98474.94;5032048;28;20041;-78
2024/02/22 09:40:43;;;;;;;8.02;6.55;;;;;;;9.44;100.00;98446.47;5030183;28;20459;-78
2024/02/22 09:43:10;;;;;;;9.43;6.15;;;;;;;9.57;100.00;98470.19;5010660;28;20056;-78
2024/02/22 09:45:40;;;;;;;8.85;6.55;;;;;;;9.56;100.00;98473.78;5033138;28;20104;-79
2024/02/22 09:48:10;;;;;;;8.07;6.47;;;;;;;9.31;100.00;98433.28;5028335;28;20060;-80
2024/02/22 09:50:38;;;;;;;8.93;5.95;;;;;;;9.57;100.00;98471.03;5008977;28;20049;-80
2024/02/22 09:53:07;;;;;;;10.57;6.60;;;;;;;9.47;100.00;98440.94;5026327;28;20069;-78
2024/02/22 09:55:36;;;;;;;6.25;5.63;;;;;;;9.39;100.00;98408.97;5028015;28;20061;-78
2024/02/22 09:58:04;;;;;;;8.75;5.72;;;;;;;9.64;100.00;98444.97;5028387;28;20498;-78
2024/02/22 10:00:33;;;;;;;8.60;6.78;;;;;;;9.36;100.00;98391.53;5025389;28;20045;-78
2024/02/22 10:03:03;;;;;;;7.03;6.32;;;;;;;9.16;100.00;98341.97;5024598;28;20502;-79
2024/02/22 10:05:40;;;;;;;6.37;5.63;;;;;;;9.53;100.00;98384.16;5028046;28;20049;-78
2024/02/22 10:08:10;;;;;;;7.57;5.80;;;;;;;9.69;100.00;98419.06;4994353;28;20045;-78
2024/02/22 10:10:45;;;;;;;5.10;4.43;;;;;;;9.76;100.00;98423.75;5010968;28;20045;-79
2024/02/22 10:13:20;;;;;;;5.90;5.30;;;;;;;9.34;100.00;98345.06;5025121;28;20476;-78
2024/02/22 10:15:49;;;;;;;6.25;4.90;;;;;;;9.61;100.00;98381.78;5029202;28;21022;-80
2024/02/22 10:18:46;;;;;;;4.57;3.90;;;;;;;9.78;100.00;98405.16;5041894;28;21361;-68
2024/02/22 10:21:17;;;;;;;5.55;4.13;;;;;;;9.79;100.00;98402.38;5030897;28;20308;-67
2024/02/22 10:23:46;;;;;;;5.13;4.10;;;;;;;9.82;100.00;98403.97;5005050;28;20055;-68
2024/02/22 10:26:15;;;;;;;5.85;4.20;;;;;;;9.87;100.00;98404.47;5001476;28;20057;-67
2024/02/22 10:28:43;;;;;;;6.03;4.63;;;;;;;9.87;100.00;98398.34;5003649;28;20046;-68
2024/02/22 10:31:12;;;;;;;6.63;5.43;;;;;;;9.92;100.00;98404.09;5000566;28;20092;-67
2024/02/22 10:33:40;;;;;;;5.43;4.93;;;;;;;9.93;100.00;98387.28;5014569;28;20046;-69
2024/02/22 10:36:10;;;;;;;5.90;4.93;;;;;;;9.95;100.00;98367.69;5003904;28;20042;-68
2024/02/22 10:38:39;;;;;;;7.30;5.90;;;;;;;10.07;100.00;98379.16;4999996;28;20119;-71
2024/02/22 10:41:10;;;;;;;7.07;6.00;;;;;;;10.11;100.00;98362.06;5009927;28;20125;-69
2024/02/22 10:43:40;;;;;;;6.00;5.47;;;;;;;10.02;100.00;98345.13;5002261;28;20447;-70
2024/02/22 10:46:12;;;;;;;6.75;6.13;;;;;;;10.17;100.00;98361.63;4994896;28;20104;-69
2024/02/22 10:48:51;;;;;;;7.07;6.15;;;;;;;10.22;100.00;98356.00;5006562;28;20057;-70
2024/02/22 10:51:23;;;;;;;11.07;6.00;;;;;;;10.22;100.00;98346.28;4990980;28;20076;-70
2024/02/22 10:53:54;;;;;;;7.07;5.78;;;;;;;10.23;100.00;98339.19;4964768;28;20079;-70
2024/02/22 10:56:24;;;;;;;6.53;5.85;;;;;;;10.26;100.00;98331.81;4983393;28;20054;-68
2024/02/22 10:59:09;;;;;;;7.55;5.47;;;;;;;10.28;100.00;98318.47;4974829;28;20471;-70
2024/02/22 11:01:38;;;;;;;5.90;5.35;;;;;;;10.28;100.00;98321.97;5002558;28;20073;-66
2024/02/22 11:04:07;;;;;;;6.20;5.60;;;;;;;10.27;100.00;98322.09;4976713;28;20057;-69
2024/02/22 11:06:41;;;;;;;6.63;6.03;;;;;;;10.24;100.00;98317.03;4969576;28;20047;-68
2024/02/22 11:09:17;;;;;;;9.77;6.32;;;;;;;10.24;100.00;98314.38;4984679;28;20214;-65
2024/02/22 11:11:48;;;;;;;8.23;6.28;;;;;;;10.19;100.00;98304.19;4983851;28;20129;-68
2024/02/22 11:14:34;;;;;;;7.20;5.95;;;;;;;10.23;100.00;98302.16;4960282;28;20058;-69
2024/02/22 11:17:15;;;;;;;6.38;5.75;;;;;;;10.18;100.00;98300.69;4964147;28;20042;-70
2024/02/22 11:19:55;;;;;;;5.97;5.20;;;;;;;10.19;100.00;98286.50;4968203;28;20067;-69
2024/02/22 11:22:33;;;;;;;6.03;5.43;;;;;;;10.19;100.00;98286.50;4961465;28;20101;-69
2024/02/22 11:25:06;;;;;;;5.60;5.10;;;;;;;10.19;100.00;98267.16;4971431;28;20051;-68
2024/02/22 11:27:36;;;;;;;6.13;5.57;;;;;;;10.22;100.00;98261.63;4968588;28;20050;-66
2024/02/22 11:30:17;;;;;;;6.30;5.43;;;;;;;10.21;100.00;98259.94;4951993;28;20055;-67
2024/02/22 11:32:51;;;;;;;6.85;5.30;;;;;;;10.17;100.00;98251.38;4955257;28;20066;-67
2024/02/22 11:35:25;;;;;;;7.57;6.28;;;;;;;10.16;100.00;98236.47;4956534;28;20035;-68
2024/02/22 11:37:59;;;;;;;11.98;5.72;;;;;;;10.18;100.00;98237.22;4961264;28;20058;-67
2024/02/22 11:40:34;;;;;;;6.57;5.63;;;;;;;10.17;100.00;98224.94;4950962;28;20081;-68